LFRD/DNR METAR and TAF weather

Enter ICAO airport designator
Station Type Date Time Source
LFRD METAR 2019/02/17 16:00 UTC NOAA

LFRD 171600Z AUTO 21010KT 9999 FEW034 15/09 Q1016 TEMPO BKN015


Station Type Date Time Source
LFRD Decoded METAR 2019/02/17 16:00 UTC NOAA

Dinard, France (LFRD) 48-35N 002-04W 60M
Feb 17, 2019 - 11:00 AM EST / 2019.02.17 1600 UTC
Wind: from the SSW (210 degrees) at 12 MPH (10 KT):0
Visibility: greater than 7 mile(s):0
Sky conditions: mostly clear
Temperature: 59 F (15 C)
Dew Point: 48 F (9 C)
Relative Humidity: 67%
Pressure (altimeter): 30.00 in. Hg (1016 hPa)
ob: LFRD 171600Z AUTO 21010KT 9999 FEW034 15/09 Q1016 TEMPO BKN015
cycle: 16

Station Type Date Time Source
LFRD TAF 2019/02/17 12:21 UTC NOAA

TAF LFRD 171100Z 1712/1812 18012KT CAVOK PROB40
TEMPO 1712/1720 BKN015
BECMG 1800/1802 16004KT 3000 BR BKN003
BECMG 1809/1812 23006KT 9999 NSW BKN007


Example: see airport list